createdAt,value
2022-10-21T00:01:12.682Z,11.80
2022-10-21T00:03:42.986Z,12.10
2022-10-21T00:06:11.537Z,11.03
2022-10-21T00:08:40.530Z,11.70
2022-10-21T00:11:10.237Z,11.13
2022-10-21T00:13:39.998Z,12.07
2022-10-21T00:16:10.394Z,10.37
2022-10-21T00:18:40.953Z,11.37
2022-10-21T00:21:12.281Z,11.20
2022-10-21T00:23:40.957Z,11.07
2022-10-21T00:26:09.881Z,10.93
2022-10-21T00:28:38.364Z,10.23
2022-10-21T00:31:08.125Z,11.03
2022-10-21T00:33:36.889Z,9.93
2022-10-21T00:36:09.632Z,11.70
2022-10-21T00:38:39.481Z,11.20
2022-10-21T00:41:08.285Z,11.37
2022-10-21T00:43:54.259Z,10.90
2022-10-21T00:46:27.079Z,12.00
2022-10-21T00:48:58.977Z,11.70
2022-10-21T00:51:27.545Z,12.40
2022-10-21T00:53:57.328Z,11.17
2022-10-21T00:56:28.611Z,11.43
2022-10-21T00:59:01.494Z,11.40
2022-10-21T01:01:31.474Z,11.63
2022-10-21T01:04:01.531Z,11.90
2022-10-21T01:06:30.738Z,11.97
2022-10-21T01:09:01.057Z,12.00
2022-10-21T01:11:29.867Z,12.90
2022-10-21T01:14:29.173Z,12.93
2022-10-21T01:17:11.536Z,12.00
2022-10-21T01:20:07.467Z,11.47
2022-10-21T01:22:52.995Z,12.37
2022-10-21T01:25:38.793Z,12.47
2022-10-21T01:28:16.598Z,12.33
2022-10-21T01:30:47.874Z,12.47
2022-10-21T01:33:43.904Z,12.43
2022-10-21T01:36:20.304Z,12.97
2022-10-21T01:39:09.555Z,11.80
2022-10-21T01:41:42.457Z,11.47
2022-10-21T01:44:17.348Z,12.57
2022-10-21T01:46:49.735Z,12.47
2022-10-21T01:49:21.965Z,12.73
2022-10-21T01:51:50.299Z,12.10
2022-10-21T01:54:23.481Z,11.77
2022-10-21T01:56:52.443Z,12.10
2022-10-21T01:59:21.400Z,12.27
2022-10-21T02:01:52.086Z,12.50
2022-10-21T02:04:20.877Z,11.83
2022-10-21T02:06:49.330Z,11.30
2022-10-21T02:09:18.284Z,11.80
2022-10-21T02:11:47.815Z,12.20
2022-10-21T02:14:21.251Z,11.87
2022-10-21T02:16:54.018Z,11.13
2022-10-21T02:19:22.822Z,12.10
2022-10-21T02:21:54.249Z,12.00
2022-10-21T02:24:28.942Z,12.00
2022-10-21T02:26:57.367Z,10.93
2022-10-21T02:29:28.768Z,11.37
2022-10-21T02:32:10.458Z,11.60
2022-10-21T02:34:49.879Z,11.60
2022-10-21T02:37:24.878Z,11.83
2022-10-21T02:39:56.523Z,11.30
2022-10-21T02:42:28.583Z,13.20
2022-10-21T02:44:57.045Z,12.50
2022-10-21T02:47:27.187Z,12.50
2022-10-21T02:49:55.593Z,13.47
2022-10-21T02:52:26.068Z,11.63
2022-10-21T02:54:55.353Z,12.40
2022-10-21T02:57:23.702Z,13.03
2022-10-21T02:59:54.315Z,13.87
2022-10-21T03:02:22.651Z,13.33
2022-10-21T03:04:52.424Z,12.50
2022-10-21T03:07:20.748Z,12.53
2022-10-21T03:09:50.017Z,11.77
2022-10-21T03:12:18.396Z,12.33
2022-10-21T03:14:47.026Z,12.63
2022-10-21T03:17:16.085Z,11.50
2022-10-21T03:19:44.443Z,12.57
2022-10-21T03:22:14.260Z,12.00
2022-10-21T03:24:42.837Z,12.00
2022-10-21T03:27:11.305Z,12.17
2022-10-21T03:29:39.781Z,12.77
2022-10-21T03:32:08.160Z,13.10
2022-10-21T03:34:36.506Z,12.73
2022-10-21T03:37:04.847Z,13.00
2022-10-21T03:39:34.920Z,12.50
2022-10-21T03:42:03.265Z,12.00
2022-10-21T03:44:32.057Z,14.17
2022-10-21T03:47:00.392Z,11.97
2022-10-21T03:49:28.730Z,12.03
2022-10-21T03:51:57.202Z,14.40
2022-10-21T03:54:25.634Z,12.17
2022-10-21T03:56:55.441Z,13.17
2022-10-21T03:59:24.321Z,12.70
2022-10-21T04:01:52.643Z,12.93
2022-10-21T04:04:21.105Z,12.50
2022-10-21T04:06:49.482Z,14.00
2022-10-21T04:09:19.294Z,12.10
2022-10-21T04:11:48.034Z,14.87
2022-10-21T04:14:17.857Z,13.50
2022-10-21T04:16:48.052Z,13.00
2022-10-21T04:19:20.520Z,14.03
2022-10-21T04:21:49.195Z,13.10
2022-10-21T04:24:17.768Z,14.07
2022-10-21T04:26:46.175Z,12.30
2022-10-21T04:29:15.151Z,12.77
2022-10-21T04:31:45.056Z,12.70
2022-10-21T04:34:13.597Z,13.80
2022-10-21T04:36:41.857Z,12.70
2022-10-21T04:39:10.500Z,13.37
2022-10-21T04:41:39.195Z,12.23
2022-10-21T04:44:09.895Z,11.63
2022-10-21T04:46:38.390Z,13.50
2022-10-21T04:49:10.523Z,13.30
2022-10-21T04:51:39.109Z,14.13
2022-10-21T04:54:10.573Z,13.07
2022-10-21T04:56:39.141Z,12.97
2022-10-21T04:59:08.056Z,13.10
2022-10-21T05:01:38.485Z,12.77
2022-10-21T05:04:12.972Z,12.43
2022-10-21T05:06:42.692Z,13.20
2022-10-21T05:09:20.762Z,13.70
2022-10-21T05:12:10.056Z,13.10
2022-10-21T05:15:10.909Z,12.53
2022-10-21T05:17:47.281Z,12.83
2022-10-21T05:20:26.804Z,14.67
2022-10-21T05:23:10.188Z,13.40
2022-10-21T05:25:55.197Z,13.27
2022-10-21T05:28:40.553Z,14.50
2022-10-21T05:31:11.108Z,14.13
2022-10-21T05:33:55.858Z,15.37
2022-10-21T05:36:31.692Z,13.80
2022-10-21T05:39:03.114Z,14.83
2022-10-21T05:41:38.071Z,14.23
2022-10-21T05:44:14.695Z,14.73
2022-10-21T05:46:46.543Z,14.80
2022-10-21T05:49:33.290Z,13.23
2022-10-21T05:52:04.866Z,14.10
2022-10-21T05:54:39.921Z,14.20
2022-10-21T05:57:23.657Z,15.30
2022-10-21T05:59:52.538Z,14.90
2022-10-21T06:02:29.804Z,14.57
2022-10-21T06:05:09.597Z,15.10
2022-10-21T06:07:45.964Z,15.10
2022-10-21T06:10:28.376Z,14.10
2022-10-21T06:13:03.672Z,16.43
2022-10-21T06:15:42.055Z,15.23
2022-10-21T06:18:20.642Z,15.40
2022-10-21T06:20:57.266Z,14.77
2022-10-21T06:23:45.412Z,14.43
2022-10-21T06:26:22.391Z,15.30
2022-10-21T06:29:04.580Z,15.40
2022-10-21T06:31:45.271Z,15.03
2022-10-21T06:34:20.256Z,14.80
2022-10-21T06:36:54.698Z,15.13
2022-10-21T06:39:33.216Z,16.57
2022-10-21T06:42:21.039Z,14.97
2022-10-21T06:44:53.526Z,15.73
2022-10-21T06:47:34.951Z,14.60
2022-10-21T06:50:14.475Z,15.33
2022-10-21T06:52:51.188Z,16.07
2022-10-21T06:55:46.591Z,15.70
2022-10-21T06:58:29.095Z,14.63
2022-10-21T07:01:00.806Z,15.50
2022-10-21T07:03:36.965Z,16.37
2022-10-21T07:06:08.047Z,16.10
2022-10-21T07:08:58.122Z,16.47
2022-10-21T07:11:36.541Z,16.43
2022-10-21T07:14:08.925Z,14.60
2022-10-21T07:16:42.701Z,13.97
2022-10-21T07:19:18.373Z,14.00
2022-10-21T07:21:49.516Z,15.07
2022-10-21T07:24:22.814Z,13.80
2022-10-21T07:27:09.490Z,16.57
2022-10-21T07:29:45.792Z,16.07
2022-10-21T07:32:17.882Z,14.00
2022-10-21T07:34:51.378Z,13.17
2022-10-21T07:37:27.796Z,15.20
2022-10-21T07:40:14.884Z,15.70
2022-10-21T07:42:48.839Z,14.97
2022-10-21T07:45:33.419Z,14.07
2022-10-21T07:48:06.485Z,14.43
2022-10-21T07:50:40.100Z,14.27
2022-10-21T07:53:17.958Z,13.80
2022-10-21T07:55:50.819Z,15.37
2022-10-21T07:58:47.790Z,14.83
2022-10-21T08:01:34.328Z,15.90
2022-10-21T08:04:07.323Z,15.37
2022-10-21T08:06:44.796Z,14.67
2022-10-21T08:09:40.696Z,13.57
2022-10-21T08:12:20.836Z,13.40
2022-10-21T08:15:05.349Z,14.80
2022-10-21T08:17:39.178Z,14.43
2022-10-21T08:20:14.034Z,14.63
2022-10-21T08:22:51.224Z,15.17
2022-10-21T08:25:26.836Z,16.00
2022-10-21T08:27:59.356Z,15.87
2022-10-21T08:30:42.389Z,14.50
2022-10-21T08:33:17.821Z,14.07
2022-10-21T08:35:48.798Z,14.63
2022-10-21T08:38:22.730Z,14.30
2022-10-21T08:40:58.017Z,14.60
2022-10-21T08:43:35.684Z,14.27
2022-10-21T08:46:10.382Z,15.10
2022-10-21T08:48:49.514Z,13.40
2022-10-21T08:51:25.543Z,15.33
2022-10-21T08:54:03.213Z,16.10
2022-10-21T08:56:33.516Z,14.43
2022-10-21T08:59:24.561Z,14.97
2022-10-21T09:02:05.578Z,16.40
2022-10-21T09:04:52.829Z,14.53
2022-10-21T09:07:33.016Z,14.50
2022-10-21T09:10:10.007Z,14.03
2022-10-21T09:13:00.403Z,13.97
2022-10-21T09:16:10.307Z,15.77
2022-10-21T09:18:52.261Z,16.83
2022-10-21T09:21:32.039Z,13.80
2022-10-21T09:24:17.286Z,15.57
2022-10-21T09:26:49.896Z,14.13
2022-10-21T09:29:37.856Z,15.17
2022-10-21T09:32:23.075Z,14.50
2022-10-21T09:35:17.479Z,14.53
2022-10-21T09:37:50.607Z,15.20
2022-10-21T09:40:26.793Z,14.80
2022-10-21T09:43:13.855Z,14.60
2022-10-21T09:45:45.844Z,13.50
2022-10-21T09:48:55.037Z,13.80
2022-10-21T09:51:42.866Z,13.10
2022-10-21T09:54:33.806Z,14.37
2022-10-21T09:57:16.100Z,14.80
2022-10-21T09:59:59.323Z,13.63
2022-10-21T10:02:33.624Z,14.20
2022-10-21T10:05:36.216Z,14.20
2022-10-21T10:08:37.345Z,13.30
2022-10-21T10:11:19.126Z,13.17
2022-10-21T10:13:56.029Z,14.00
2022-10-21T10:16:33.741Z,14.10
2022-10-21T10:19:23.970Z,14.50
2022-10-21T10:22:17.631Z,13.90
2022-10-21T10:25:10.479Z,15.20
2022-10-21T10:27:56.213Z,15.90
2022-10-21T10:30:28.819Z,14.00
2022-10-21T10:33:18.753Z,14.50
2022-10-21T10:36:01.195Z,13.80
2022-10-21T10:38:52.354Z,14.73
2022-10-21T10:41:49.461Z,14.20
2022-10-21T10:44:33.402Z,13.10
2022-10-21T10:47:08.656Z,13.00
2022-10-21T10:49:50.176Z,13.67
2022-10-21T10:52:31.365Z,15.17
2022-10-21T10:55:31.722Z,13.50
2022-10-21T10:58:12.404Z,13.70
2022-10-21T11:03:51.211Z,13.80
2022-10-21T11:06:42.966Z,12.73
2022-10-21T11:09:13.751Z,13.00
2022-10-21T11:11:57.181Z,13.17
2022-10-21T11:14:44.018Z,13.27
2022-10-21T11:17:16.147Z,12.80
2022-10-21T11:19:57.769Z,13.83
2022-10-21T11:22:55.519Z,13.00
2022-10-21T11:25:39.769Z,12.50
2022-10-21T11:28:24.854Z,13.33
2022-10-21T11:31:17.013Z,12.87
2022-10-21T11:34:08.420Z,12.37
2022-10-21T11:36:53.787Z,13.63
2022-10-21T11:39:47.828Z,13.10
2022-10-21T11:42:24.971Z,12.63
2022-10-21T11:45:20.976Z,12.60
2022-10-21T11:48:33.806Z,13.17
2022-10-21T11:54:14.000Z,11.67
2022-10-21T11:57:02.955Z,14.27
2022-10-21T11:59:50.217Z,11.70
2022-10-21T12:02:30.517Z,13.87
2022-10-21T12:05:22.216Z,14.03
2022-10-21T12:08:00.971Z,13.40
2022-10-21T12:10:51.298Z,13.17
2022-10-21T12:13:27.719Z,11.53
2022-10-21T12:16:21.883Z,12.60
2022-10-21T12:19:04.655Z,12.60
2022-10-21T12:21:39.689Z,12.77
2022-10-21T12:24:22.267Z,12.00
2022-10-21T12:27:02.482Z,13.87
2022-10-21T12:29:44.060Z,12.73
2022-10-21T12:32:33.926Z,12.90
2022-10-21T12:35:27.896Z,14.00
2022-10-21T12:38:27.604Z,13.80
2022-10-21T12:41:29.714Z,11.93
2022-10-21T12:44:18.087Z,13.63
2022-10-21T12:47:02.421Z,13.53
2022-10-21T12:49:48.746Z,13.37
2022-10-21T12:52:26.063Z,13.10
2022-10-21T12:55:08.176Z,13.07
2022-10-21T12:57:46.401Z,12.47
2022-10-21T13:00:56.132Z,13.13
2022-10-21T13:03:53.178Z,12.47
2022-10-21T13:06:55.223Z,12.73
2022-10-21T13:09:41.322Z,13.07
2022-10-21T13:12:42.595Z,11.50
2022-10-21T13:15:48.417Z,12.60
2022-10-21T13:18:54.732Z,11.57
2022-10-21T13:21:42.195Z,11.90
2022-10-21T13:24:21.940Z,11.20
2022-10-21T13:27:00.425Z,11.77
2022-10-21T13:30:01.156Z,12.37
2022-10-21T13:32:51.164Z,10.67
2022-10-21T13:35:31.795Z,11.73
2022-10-21T13:38:13.143Z,12.00
2022-10-21T13:40:55.187Z,11.77
2022-10-21T13:43:41.949Z,10.80
2022-10-21T13:46:18.386Z,12.70
2022-10-21T13:48:54.726Z,12.73
2022-10-21T13:51:29.542Z,12.83
2022-10-21T13:54:16.063Z,12.30
2022-10-21T13:56:56.581Z,12.40
2022-10-21T13:59:36.115Z,13.27
2022-10-21T14:02:09.605Z,11.63
2022-10-21T14:04:45.881Z,12.50
2022-10-21T14:07:30.087Z,13.80
2022-10-21T14:10:07.528Z,12.57
2022-10-21T14:12:53.010Z,12.07
2022-10-21T14:15:35.340Z,13.90
2022-10-21T14:18:37.312Z,12.50
2022-10-21T14:21:11.900Z,11.73
2022-10-21T14:23:48.553Z,12.60
2022-10-21T14:26:18.474Z,13.30
2022-10-21T14:28:56.251Z,12.87
2022-10-21T14:31:46.373Z,13.03
2022-10-21T14:34:33.247Z,14.83
2022-10-21T14:37:14.756Z,13.37
2022-10-21T14:40:02.757Z,14.20
2022-10-21T14:42:38.307Z,13.13
2022-10-21T14:45:19.721Z,15.87
2022-10-21T14:47:54.859Z,12.33
2022-10-21T14:50:52.367Z,13.77
2022-10-21T14:54:06.371Z,13.40
2022-10-21T14:56:38.938Z,13.67
2022-10-21T14:59:20.904Z,13.30
2022-10-21T15:01:59.158Z,12.57
2022-10-21T15:05:02.370Z,13.10
2022-10-21T15:07:39.398Z,12.60
2022-10-21T15:10:52.200Z,13.90
2022-10-21T15:13:29.645Z,12.90
2022-10-21T15:16:06.279Z,12.97
2022-10-21T15:19:07.318Z,12.83
2022-10-21T15:21:51.847Z,12.50
2022-10-21T15:24:44.609Z,12.77
2022-10-21T15:27:25.139Z,12.83
2022-10-21T15:30:19.837Z,12.97
2022-10-21T15:33:07.611Z,12.30
2022-10-21T15:35:48.213Z,14.30
2022-10-21T15:38:20.374Z,12.10
2022-10-21T15:40:54.325Z,13.57
2022-10-21T15:43:24.143Z,13.53
2022-10-21T15:45:58.697Z,12.33
2022-10-21T15:48:28.332Z,11.83
2022-10-21T15:50:58.086Z,13.93
2022-10-21T15:53:28.638Z,14.00
2022-10-21T15:56:01.763Z,15.23
2022-10-21T15:58:33.910Z,13.00
2022-10-21T16:01:02.637Z,24.23
2022-10-21T16:03:31.756Z,13.97
2022-10-21T16:06:00.831Z,15.03
2022-10-21T16:08:33.290Z,13.03
2022-10-21T16:11:03.711Z,14.90
2022-10-21T16:13:32.473Z,14.10
2022-10-21T16:16:01.681Z,13.63
2022-10-21T16:18:37.779Z,15.53
2022-10-21T16:21:09.676Z,14.60
2022-10-21T16:23:39.831Z,13.97
2022-10-21T16:26:18.925Z,13.53
2022-10-21T16:28:52.013Z,14.17
2022-10-21T16:31:26.313Z,14.23
2022-10-21T16:33:55.033Z,14.90
2022-10-21T16:36:26.314Z,16.23
2022-10-21T16:39:02.161Z,14.90
2022-10-21T16:41:35.582Z,15.10
2022-10-21T16:44:11.376Z,15.90
2022-10-21T16:46:44.142Z,15.80
2022-10-21T16:49:18.530Z,15.47
2022-10-21T16:51:47.343Z,20.00
2022-10-21T16:54:17.573Z,15.70
2022-10-21T16:56:55.753Z,16.77
2022-10-21T16:59:25.305Z,16.67
2022-10-21T17:02:00.312Z,16.60
2022-10-21T17:04:33.447Z,15.90
2022-10-21T17:07:03.355Z,15.27
2022-10-21T17:09:33.104Z,14.70
2022-10-21T17:12:06.529Z,15.10
2022-10-21T17:14:37.722Z,16.03
2022-10-21T17:17:12.193Z,15.83
2022-10-21T17:19:42.107Z,16.03
2022-10-21T17:22:13.785Z,17.83
2022-10-21T17:24:45.783Z,18.47
2022-10-21T17:27:19.664Z,16.50
2022-10-21T17:29:49.456Z,17.03
2022-10-21T17:32:20.850Z,17.70
2022-10-21T17:34:50.532Z,17.80
2022-10-21T17:37:19.626Z,17.93
2022-10-21T17:39:49.516Z,17.60
2022-10-21T17:42:20.824Z,17.37
2022-10-21T17:44:50.126Z,15.83
2022-10-21T17:47:22.148Z,16.70
2022-10-21T17:49:54.351Z,18.93
2022-10-21T17:52:23.715Z,16.30
2022-10-21T17:54:56.010Z,16.37
2022-10-21T17:57:26.873Z,17.83
2022-10-21T17:59:56.992Z,16.87
2022-10-21T18:02:28.754Z,19.00
2022-10-21T18:04:58.286Z,19.13
2022-10-21T18:07:30.585Z,17.50
2022-10-21T18:10:01.275Z,17.13
2022-10-21T18:12:35.002Z,18.10
2022-10-21T18:15:07.464Z,17.90
2022-10-21T18:17:40.387Z,18.13
2022-10-21T18:20:11.861Z,17.57
2022-10-21T18:22:41.598Z,17.80
2022-10-21T18:25:12.939Z,17.03
2022-10-21T18:27:46.951Z,17.63
2022-10-21T18:30:17.043Z,18.93
2022-10-21T18:32:47.049Z,18.03
2022-10-21T18:35:18.630Z,17.40
2022-10-21T18:37:48.962Z,17.67
2022-10-21T18:40:20.388Z,17.70
2022-10-21T18:42:55.665Z,19.47
2022-10-21T18:45:29.573Z,18.60
2022-10-21T18:48:00.308Z,19.53
2022-10-21T18:50:31.576Z,18.50
2022-10-21T18:53:04.020Z,18.57
2022-10-21T18:55:35.791Z,18.13
2022-10-21T18:58:07.914Z,18.50
2022-10-21T19:00:38.301Z,20.30
2022-10-21T19:03:10.513Z,20.80
2022-10-21T19:05:42.540Z,20.60
2022-10-21T19:08:28.428Z,19.10
2022-10-21T19:11:03.188Z,20.13
2022-10-21T19:13:37.442Z,19.60
2022-10-21T19:16:15.623Z,21.13
2022-10-21T19:18:52.340Z,22.73
2022-10-21T19:24:15.175Z,20.20
2022-10-21T19:26:50.666Z,19.50
2022-10-21T19:29:25.693Z,19.87
2022-10-21T19:32:00.122Z,20.23
2022-10-21T19:34:30.531Z,19.30
2022-10-21T19:37:16.326Z,17.80
2022-10-21T19:39:56.571Z,17.83
2022-10-21T19:42:31.268Z,19.93
2022-10-21T19:45:14.998Z,17.47
2022-10-21T19:47:57.581Z,18.67
2022-10-21T19:50:31.880Z,17.87
2022-10-21T19:53:03.811Z,21.03
2022-10-21T19:58:37.532Z,20.40
2022-10-21T20:01:21.918Z,19.97
2022-10-21T20:03:55.681Z,26.07
2022-10-21T20:06:39.194Z,20.27
2022-10-21T20:09:15.583Z,19.63
2022-10-21T20:11:49.641Z,19.27
2022-10-21T20:14:29.224Z,18.43
2022-10-21T20:17:24.652Z,18.90
2022-10-21T20:23:11.103Z,20.50
2022-10-21T20:26:13.496Z,18.00
2022-10-21T20:29:03.185Z,18.43
2022-10-21T20:31:46.054Z,19.20
2022-10-21T20:34:37.530Z,21.70
2022-10-21T20:37:16.326Z,19.00
2022-10-21T20:39:54.553Z,18.93
2022-10-21T20:42:49.831Z,19.80
2022-10-21T20:45:45.623Z,19.70
2022-10-21T20:48:31.704Z,21.33
2022-10-21T20:51:09.766Z,18.77
2022-10-21T20:53:41.156Z,19.07
2022-10-21T20:56:15.367Z,19.23
2022-10-21T20:58:57.745Z,19.77
2022-10-21T21:01:36.712Z,16.23
2022-10-21T21:04:32.032Z,19.77
2022-10-21T21:07:26.771Z,18.40
2022-10-21T21:10:03.849Z,17.70
2022-10-21T21:12:38.635Z,19.57
2022-10-21T21:15:10.355Z,17.90
2022-10-21T21:17:43.438Z,18.87
2022-10-21T21:20:21.881Z,18.93
2022-10-21T21:22:55.935Z,20.13
2022-10-21T21:25:24.881Z,21.30
2022-10-21T21:27:53.326Z,20.53
2022-10-21T21:30:22.480Z,18.30
2022-10-21T21:32:51.576Z,17.67
2022-10-21T21:35:20.237Z,19.57
2022-10-21T21:37:48.872Z,17.90
2022-10-21T21:40:18.974Z,19.50
2022-10-21T21:42:47.616Z,18.53
2022-10-21T21:45:35.013Z,19.23
2022-10-21T21:48:03.368Z,18.83
2022-10-21T21:50:31.753Z,18.90
2022-10-21T21:53:00.475Z,18.70
2022-10-21T21:55:31.241Z,17.83
2022-10-21T21:58:04.351Z,18.60
2022-10-21T22:00:35.428Z,15.97
2022-10-21T22:03:04.106Z,19.67
2022-10-21T22:05:35.437Z,17.73
2022-10-21T22:08:07.288Z,18.87
2022-10-21T22:10:38.621Z,17.00
2022-10-21T22:13:07.360Z,17.57
2022-10-21T22:15:47.581Z,18.43
2022-10-21T22:18:17.066Z,16.37
2022-10-21T22:20:52.830Z,17.20
2022-10-21T22:23:23.927Z,19.10
2022-10-21T22:25:53.999Z,16.47
2022-10-21T22:28:23.153Z,17.50
2022-10-21T22:30:59.225Z,17.50
2022-10-21T22:33:28.100Z,19.33
2022-10-21T22:36:00.799Z,16.60
2022-10-21T22:38:30.242Z,16.70
2022-10-21T22:41:02.991Z,18.13
2022-10-21T22:43:32.564Z,18.23
2022-10-21T22:46:09.699Z,17.80
2022-10-21T22:48:45.848Z,17.40
2022-10-21T22:51:17.446Z,17.40
2022-10-21T22:53:46.819Z,18.07
2022-10-21T22:56:19.597Z,17.97
2022-10-21T22:58:50.998Z,15.20
2022-10-21T23:01:19.725Z,16.90
2022-10-21T23:03:48.345Z,17.13
2022-10-21T23:06:20.251Z,14.10
2022-10-21T23:08:48.982Z,14.20
2022-10-21T23:11:21.439Z,18.43
2022-10-21T23:14:02.507Z,17.80
2022-10-21T23:16:37.679Z,16.73
2022-10-21T23:19:06.625Z,16.30
2022-10-21T23:21:36.456Z,20.83
2022-10-21T23:24:07.209Z,17.43
2022-10-21T23:26:39.255Z,14.67
2022-10-21T23:29:09.345Z,17.03
2022-10-21T23:31:38.040Z,16.07
2022-10-21T23:34:08.661Z,16.83
2022-10-21T23:36:37.577Z,16.80
2022-10-21T23:39:10.140Z,14.77
2022-10-21T23:41:40.292Z,16.83
2022-10-21T23:44:11.555Z,17.83
2022-10-21T23:46:41.418Z,16.80
2022-10-21T23:49:10.415Z,16.00
2022-10-21T23:51:41.695Z,17.03
2022-10-21T23:54:10.364Z,15.87
2022-10-21T23:56:41.990Z,17.40
2022-10-21T23:59:10.805Z,17.77
